createdAt,value
2023-05-11T00:01:33.763Z,13.65
2023-05-11T00:04:00.939Z,13.67
2023-05-11T00:06:27.566Z,13.67
2023-05-11T00:08:54.205Z,13.69
2023-05-11T00:11:21.079Z,13.69
2023-05-11T00:13:47.738Z,13.70
2023-05-11T00:16:14.794Z,13.69
2023-05-11T00:18:41.471Z,13.71
2023-05-11T00:21:08.130Z,13.72
2023-05-11T00:23:34.840Z,13.74
2023-05-11T00:26:01.592Z,13.77
2023-05-11T00:28:28.114Z,13.78
2023-05-11T00:30:58.233Z,13.79
2023-05-11T00:33:24.998Z,13.80
2023-05-11T00:35:52.060Z,13.81
2023-05-11T00:38:18.533Z,13.81
2023-05-11T00:40:46.491Z,13.83
2023-05-11T00:43:13.235Z,13.85
2023-05-11T00:45:40.524Z,13.85
2023-05-11T00:48:07.561Z,13.86
2023-05-11T00:50:36.020Z,13.87
2023-05-11T00:53:03.276Z,13.86
2023-05-11T00:55:30.509Z,13.86
2023-05-11T00:57:57.259Z,13.87
2023-05-11T01:00:23.864Z,13.88
2023-05-11T01:02:51.327Z,13.88
2023-05-11T01:05:18.052Z,13.89
2023-05-11T01:07:50.681Z,13.90
2023-05-11T01:10:44.668Z,13.88
2023-05-11T01:13:32.701Z,13.87
2023-05-11T01:16:06.474Z,13.87
2023-05-11T01:18:46.974Z,13.86
2023-05-11T01:21:17.321Z,13.87
2023-05-11T01:23:51.451Z,13.87
2023-05-11T01:26:54.344Z,13.88
2023-05-11T01:29:48.978Z,13.89
2023-05-11T01:32:19.682Z,13.89
2023-05-11T01:34:48.406Z,13.89
2023-05-11T01:37:23.945Z,13.88
2023-05-11T01:39:55.120Z,13.87
2023-05-11T01:42:38.378Z,13.88
2023-05-11T01:45:07.908Z,13.86
2023-05-11T01:47:37.333Z,13.85
2023-05-11T01:50:06.071Z,13.83
2023-05-11T01:52:36.413Z,13.83
2023-05-11T01:55:06.491Z,13.82
2023-05-11T01:57:36.586Z,13.81
2023-05-11T02:00:04.192Z,13.84
2023-05-11T02:02:40.519Z,13.84
2023-05-11T02:05:07.912Z,13.85
2023-05-11T02:07:36.388Z,13.84
2023-05-11T02:10:03.174Z,13.83
2023-05-11T02:12:33.932Z,13.80
2023-05-11T02:15:03.240Z,13.78
2023-05-11T02:17:30.856Z,13.73
2023-05-11T02:19:59.263Z,13.70
2023-05-11T02:22:27.409Z,13.69
2023-05-11T02:24:53.995Z,13.70
2023-05-11T02:27:20.793Z,13.71
2023-05-11T02:29:47.557Z,13.71
2023-05-11T02:32:18.144Z,13.73
2023-05-11T02:34:50.160Z,13.75
2023-05-11T02:37:23.734Z,13.77
2023-05-11T02:39:59.325Z,13.78
2023-05-11T02:42:28.959Z,13.80
2023-05-11T02:45:17.803Z,13.82
2023-05-11T02:47:54.715Z,13.81
2023-05-11T02:50:26.017Z,13.81
2023-05-11T02:52:55.646Z,13.82
2023-05-11T02:55:23.632Z,13.80
2023-05-11T02:57:50.657Z,13.81
2023-05-11T03:00:18.071Z,13.80
2023-05-11T03:02:45.332Z,13.80
2023-05-11T03:05:12.349Z,13.82
2023-05-11T03:07:38.969Z,13.84
2023-05-11T03:10:07.307Z,13.85
2023-05-11T03:12:38.371Z,13.87
2023-05-11T03:15:07.519Z,13.89
2023-05-11T03:17:39.414Z,13.91
2023-05-11T03:20:07.625Z,13.92
2023-05-11T03:22:36.950Z,13.94
2023-05-11T03:25:05.870Z,13.95
2023-05-11T03:27:34.117Z,13.95
2023-05-11T03:30:04.724Z,13.98
2023-05-11T03:32:37.954Z,13.99
2023-05-11T03:35:05.278Z,14.01
2023-05-11T03:37:32.573Z,14.03
2023-05-11T03:40:01.078Z,14.06
2023-05-11T03:42:38.590Z,14.08
2023-05-11T03:45:08.999Z,14.09
2023-05-11T03:47:38.322Z,14.11
2023-05-11T03:50:07.249Z,14.13
2023-05-11T03:52:35.631Z,14.14
2023-05-11T03:55:03.588Z,14.17
2023-05-11T03:57:30.740Z,14.19
2023-05-11T03:59:57.248Z,14.21
2023-05-11T04:02:24.728Z,14.22
2023-05-11T04:04:53.048Z,14.24
2023-05-11T04:07:20.256Z,14.25
2023-05-11T04:09:47.142Z,14.24
2023-05-11T04:12:13.648Z,14.26
2023-05-11T04:14:41.810Z,14.28
2023-05-11T04:17:08.332Z,14.28
2023-05-11T04:19:34.792Z,14.29
2023-05-11T04:22:01.323Z,14.32
2023-05-11T04:24:28.057Z,14.32
2023-05-11T04:26:57.871Z,14.34
2023-05-11T04:29:25.357Z,14.36
2023-05-11T04:31:53.612Z,14.38
2023-05-11T04:34:20.313Z,14.40
2023-05-11T04:36:50.262Z,14.42
2023-05-11T04:39:18.863Z,14.47
2023-05-11T04:41:45.600Z,14.49
2023-05-11T04:44:12.275Z,14.54
2023-05-11T04:46:38.939Z,14.57
2023-05-11T04:49:06.870Z,14.62
2023-05-11T04:51:37.735Z,14.65
2023-05-11T04:54:04.263Z,14.65
2023-05-11T04:56:30.921Z,14.66
2023-05-11T04:58:59.165Z,14.69
2023-05-11T05:01:25.787Z,14.70
2023-05-11T05:03:52.416Z,14.71
2023-05-11T05:06:18.919Z,14.74
2023-05-11T05:08:45.500Z,14.72
2023-05-11T05:11:12.074Z,14.72
2023-05-11T05:13:38.948Z,14.75
2023-05-11T05:16:05.868Z,14.77
2023-05-11T05:18:32.643Z,14.79
2023-05-11T05:20:59.836Z,14.81
2023-05-11T05:23:26.814Z,14.86
2023-05-11T05:25:53.615Z,14.89
2023-05-11T05:28:20.745Z,14.92
2023-05-11T05:30:47.490Z,14.92
2023-05-11T05:33:14.955Z,14.95
2023-05-11T05:35:43.824Z,14.96
2023-05-11T05:38:10.904Z,14.97
2023-05-11T05:40:39.395Z,14.99
2023-05-11T05:43:06.834Z,15.00
2023-05-11T05:45:33.743Z,15.00
2023-05-11T05:48:01.169Z,14.99
2023-05-11T05:50:27.842Z,15.00
2023-05-11T05:52:54.428Z,14.96
2023-05-11T05:55:23.911Z,14.95
2023-05-11T05:57:51.270Z,14.95
2023-05-11T06:00:18.302Z,14.96
2023-05-11T06:02:52.683Z,14.92
2023-05-11T06:05:24.231Z,14.91
2023-05-11T06:08:01.753Z,14.89
2023-05-11T06:10:36.673Z,14.83
2023-05-11T06:13:03.366Z,14.82
2023-05-11T06:15:29.991Z,14.80
2023-05-11T06:18:02.826Z,14.76
2023-05-11T06:20:31.797Z,14.75
2023-05-11T06:22:58.601Z,14.73
2023-05-11T06:25:25.978Z,14.75
2023-05-11T06:27:52.460Z,14.78
2023-05-11T06:30:19.554Z,14.80
2023-05-11T06:32:48.298Z,14.82
2023-05-11T06:35:17.883Z,14.87
2023-05-11T06:37:45.342Z,14.90
2023-05-11T06:40:13.451Z,14.92
2023-05-11T06:42:41.045Z,14.95
2023-05-11T06:45:10.356Z,14.99
2023-05-11T06:47:37.007Z,15.01
2023-05-11T06:50:04.144Z,15.09
2023-05-11T06:52:30.745Z,15.18
2023-05-11T06:55:01.576Z,15.25
2023-05-11T06:57:28.185Z,15.32
2023-05-11T06:59:54.782Z,15.36
2023-05-11T07:02:21.264Z,15.44
2023-05-11T07:04:50.447Z,15.52
2023-05-11T07:07:16.954Z,15.64
2023-05-11T07:09:43.850Z,15.75
2023-05-11T07:12:10.541Z,15.84
2023-05-11T07:14:38.634Z,15.95
2023-05-11T07:17:05.344Z,16.00
2023-05-11T07:19:32.128Z,16.07
2023-05-11T07:21:58.742Z,16.06
2023-05-11T07:24:25.478Z,16.05
2023-05-11T07:26:52.056Z,16.02
2023-05-11T07:29:18.811Z,16.02
2023-05-11T07:31:45.411Z,16.04
2023-05-11T07:34:11.971Z,16.05
2023-05-11T07:36:38.486Z,16.05
2023-05-11T07:39:04.984Z,16.03
2023-05-11T07:41:31.505Z,15.97
2023-05-11T07:44:00.271Z,15.93
2023-05-11T07:46:26.828Z,15.87
2023-05-11T07:49:03.359Z,15.85
2023-05-11T07:51:40.035Z,15.86
2023-05-11T07:54:06.589Z,15.89
2023-05-11T07:56:33.154Z,15.90
2023-05-11T07:58:59.606Z,15.88
2023-05-11T08:01:27.642Z,15.89
2023-05-11T08:03:54.107Z,15.91
2023-05-11T08:06:20.633Z,15.93
2023-05-11T08:08:47.178Z,15.97
2023-05-11T08:11:13.627Z,16.00
2023-05-11T08:13:40.312Z,16.08
2023-05-11T08:16:07.141Z,16.12
2023-05-11T08:18:33.746Z,16.18
2023-05-11T08:21:00.268Z,16.20
2023-05-11T08:23:26.908Z,16.23
2023-05-11T08:25:55.209Z,16.28
2023-05-11T08:28:22.171Z,16.30
2023-05-11T08:30:58.903Z,16.29
2023-05-11T08:33:36.474Z,16.29
2023-05-11T08:36:06.119Z,16.26
2023-05-11T08:38:33.316Z,16.24
2023-05-11T08:41:01.809Z,16.22
2023-05-11T08:43:30.328Z,16.20
2023-05-11T08:46:02.749Z,16.22
2023-05-11T08:48:29.422Z,16.31
2023-05-11T08:50:56.004Z,16.40
2023-05-11T08:53:22.903Z,16.51
2023-05-11T08:55:51.617Z,16.55
2023-05-11T08:58:21.776Z,16.56
2023-05-11T09:00:49.786Z,16.58
2023-05-11T09:03:17.950Z,16.62
2023-05-11T09:05:46.667Z,16.74
2023-05-11T09:08:15.067Z,16.97
2023-05-11T09:10:43.645Z,17.22
2023-05-11T09:13:11.137Z,17.39
2023-05-11T09:15:38.287Z,17.56
2023-05-11T09:18:05.379Z,17.70
2023-05-11T09:20:33.675Z,17.81
2023-05-11T09:23:01.269Z,17.83
2023-05-11T09:25:33.543Z,17.92
2023-05-11T09:28:00.859Z,17.96
2023-05-11T09:30:27.655Z,18.09
2023-05-11T09:32:58.226Z,18.12
2023-05-11T09:35:29.125Z,18.13
2023-05-11T09:38:09.858Z,18.27
2023-05-11T09:40:37.747Z,18.40
2023-05-11T09:43:17.369Z,18.47
2023-05-11T09:45:46.070Z,18.47
2023-05-11T09:48:21.503Z,18.37
2023-05-11T09:50:49.382Z,18.39
2023-05-11T09:53:16.894Z,18.44
2023-05-11T09:55:51.889Z,18.68
2023-05-11T09:58:18.462Z,18.75
2023-05-11T10:00:54.089Z,18.85
2023-05-11T10:03:20.946Z,19.06
2023-05-11T10:05:59.533Z,19.24
2023-05-11T10:08:30.674Z,19.50
2023-05-11T10:10:57.736Z,19.74
2023-05-11T10:13:24.848Z,20.02
2023-05-11T10:15:52.275Z,20.25
2023-05-11T10:18:20.464Z,20.26
2023-05-11T10:20:47.459Z,20.15
2023-05-11T10:23:15.116Z,20.11
2023-05-11T10:25:42.576Z,20.03
2023-05-11T10:28:10.541Z,19.91
2023-05-11T10:30:37.436Z,19.88
2023-05-11T10:33:06.603Z,19.83
2023-05-11T10:35:33.597Z,19.71
2023-05-11T10:38:01.029Z,19.56
2023-05-11T10:40:28.058Z,19.46
2023-05-11T10:43:17.192Z,19.34
2023-05-11T10:46:01.362Z,19.42
2023-05-11T10:49:05.855Z,19.66
2023-05-11T10:52:07.622Z,19.93
2023-05-11T10:54:49.138Z,20.03
2023-05-11T10:57:49.687Z,20.08
2023-05-11T11:00:48.678Z,19.94
2023-05-11T11:03:15.667Z,19.85
2023-05-11T11:05:43.992Z,19.77
2023-05-11T11:08:11.026Z,19.69
2023-05-11T11:10:45.505Z,19.64
2023-05-11T11:13:16.960Z,19.62
2023-05-11T11:15:55.442Z,19.55
2023-05-11T11:18:34.892Z,19.44
2023-05-11T11:21:02.155Z,19.28
2023-05-11T11:23:50.312Z,19.14
2023-05-11T11:26:47.374Z,19.04
2023-05-11T11:29:14.002Z,18.95
2023-05-11T11:31:41.475Z,18.89
2023-05-11T11:34:27.204Z,18.89
2023-05-11T11:37:03.694Z,18.87
2023-05-11T11:39:42.669Z,18.68
2023-05-11T11:42:14.152Z,18.55
2023-05-11T11:44:41.714Z,18.48
2023-05-11T11:47:25.922Z,18.41
2023-05-11T11:49:54.663Z,18.29
2023-05-11T11:52:27.108Z,18.21
2023-05-11T11:54:55.939Z,18.16
2023-05-11T11:57:34.433Z,18.08
2023-05-11T12:00:06.989Z,18.04
2023-05-11T12:02:44.610Z,17.97
2023-05-11T12:05:23.028Z,17.92
2023-05-11T12:07:52.077Z,17.83
2023-05-11T12:10:21.437Z,17.77
2023-05-11T12:12:49.832Z,17.67
2023-05-11T12:15:26.563Z,17.57
2023-05-11T12:17:54.954Z,17.46
2023-05-11T12:20:22.725Z,17.40
2023-05-11T12:22:50.536Z,17.44
2023-05-11T12:25:18.636Z,17.47
2023-05-11T12:28:03.550Z,17.46
2023-05-11T12:30:52.054Z,17.35
2023-05-11T12:33:18.649Z,17.24
2023-05-11T12:35:45.521Z,17.19
2023-05-11T12:38:11.967Z,17.21
2023-05-11T12:40:38.854Z,17.19
2023-05-11T12:43:05.599Z,17.11
2023-05-11T12:45:32.163Z,17.17
2023-05-11T12:47:59.344Z,17.10
2023-05-11T12:50:25.945Z,17.14
2023-05-11T12:52:52.753Z,17.14
2023-05-11T12:55:30.992Z,17.14
2023-05-11T12:58:14.465Z,17.26
2023-05-11T13:00:57.535Z,17.40
2023-05-11T13:03:29.006Z,17.60
2023-05-11T13:06:09.106Z,17.64
2023-05-11T13:08:37.442Z,17.75
2023-05-11T13:11:22.521Z,17.79
2023-05-11T13:13:49.853Z,17.89
2023-05-11T13:16:34.118Z,18.11
2023-05-11T13:19:02.597Z,18.26
2023-05-11T13:21:30.418Z,18.52
2023-05-11T13:23:57.040Z,19.07
2023-05-11T13:26:25.589Z,19.51
2023-05-11T13:29:08.768Z,19.86
2023-05-11T13:31:48.145Z,20.24
2023-05-11T13:34:14.782Z,20.49
2023-05-11T13:36:41.414Z,20.65
2023-05-11T13:39:08.092Z,20.85
2023-05-11T13:41:34.737Z,21.04
2023-05-11T13:44:01.384Z,21.08
2023-05-11T13:46:29.030Z,21.12
2023-05-11T13:48:55.743Z,20.93
2023-05-11T13:51:23.175Z,20.86
2023-05-11T13:53:49.650Z,21.01
2023-05-11T13:56:19.374Z,21.12
2023-05-11T13:58:46.074Z,21.11
2023-05-11T14:01:13.908Z,21.16
2023-05-11T14:03:42.941Z,21.23
2023-05-11T14:06:09.514Z,21.23
2023-05-11T14:08:36.091Z,21.24
2023-05-11T14:11:02.558Z,21.41
2023-05-11T14:13:29.126Z,21.58
2023-05-11T14:15:56.698Z,21.70
2023-05-11T14:18:24.900Z,21.76
2023-05-11T14:20:51.855Z,21.93
2023-05-11T14:23:18.439Z,21.89
2023-05-11T14:25:44.959Z,21.64
2023-05-11T14:28:11.564Z,21.50
2023-05-11T14:30:38.151Z,21.55
2023-05-11T14:33:04.794Z,21.59
2023-05-11T14:35:31.385Z,21.53
2023-05-11T14:37:57.966Z,21.38
2023-05-11T14:40:24.487Z,21.33
2023-05-11T14:42:51.090Z,21.23
2023-05-11T14:45:18.062Z,21.30
2023-05-11T14:47:44.832Z,21.29
2023-05-11T14:50:11.479Z,21.44
2023-05-11T14:52:38.302Z,21.56
2023-05-11T14:55:05.234Z,21.61
2023-05-11T14:57:32.467Z,21.65
2023-05-11T15:00:00.424Z,21.66
2023-05-11T15:02:27.683Z,21.68
2023-05-11T15:04:54.990Z,21.70
2023-05-11T15:07:22.344Z,21.72
2023-05-11T15:09:49.743Z,21.95
2023-05-11T15:12:16.306Z,22.01
2023-05-11T15:14:42.802Z,22.19
2023-05-11T15:17:09.305Z,22.51
2023-05-11T15:19:36.049Z,22.95
2023-05-11T15:22:02.711Z,24.00
2023-05-11T15:24:29.262Z,25.41
2023-05-11T15:26:56.905Z,26.60
2023-05-11T15:29:27.091Z,27.75
2023-05-11T15:31:53.780Z,28.73
2023-05-11T15:34:20.728Z,29.28
2023-05-11T15:36:48.856Z,29.60
2023-05-11T15:39:18.568Z,28.14
2023-05-11T15:41:45.111Z,28.73
2023-05-11T15:44:11.629Z,29.10
2023-05-11T15:46:38.907Z,29.76
2023-05-11T15:49:06.209Z,28.94
2023-05-11T15:51:32.799Z,27.69
2023-05-11T15:53:59.422Z,26.88
2023-05-11T15:56:26.463Z,26.34
2023-05-11T15:58:53.016Z,25.59
2023-05-11T16:01:21.080Z,24.93
2023-05-11T16:03:48.861Z,24.47
2023-05-11T16:06:16.732Z,24.01
2023-05-11T16:08:43.290Z,23.56
2023-05-11T16:11:09.909Z,23.11
2023-05-11T16:13:36.417Z,22.69
2023-05-11T16:16:03.004Z,22.25
2023-05-11T16:18:29.630Z,21.88
2023-05-11T16:20:56.538Z,21.62
2023-05-11T16:23:25.260Z,21.43
2023-05-11T16:25:51.934Z,21.21
2023-05-11T16:28:18.483Z,21.02
2023-05-11T16:30:45.057Z,20.87
2023-05-11T16:33:11.616Z,20.74
2023-05-11T16:35:38.255Z,20.55
2023-05-11T16:38:06.000Z,20.43
2023-05-11T16:40:33.262Z,20.33
2023-05-11T16:42:59.856Z,20.24
2023-05-11T16:45:26.433Z,20.15
2023-05-11T16:47:52.971Z,20.12
2023-05-11T16:50:19.704Z,20.11
2023-05-11T16:52:46.370Z,20.06
2023-05-11T16:55:13.123Z,20.00
2023-05-11T16:57:39.905Z,19.94
2023-05-11T17:00:08.310Z,19.91
2023-05-11T17:02:34.946Z,19.86
2023-05-11T17:05:02.962Z,19.85
2023-05-11T17:07:29.471Z,19.78
2023-05-11T17:09:57.208Z,19.71
2023-05-11T17:12:24.163Z,19.66
2023-05-11T17:14:50.704Z,19.61
2023-05-11T17:17:17.400Z,19.56
2023-05-11T17:19:44.360Z,19.47
2023-05-11T17:22:13.149Z,19.37
2023-05-11T17:24:40.014Z,19.30
2023-05-11T17:27:07.048Z,19.23
2023-05-11T17:29:33.634Z,19.17
2023-05-11T17:32:00.299Z,19.11
2023-05-11T17:34:28.594Z,19.06
2023-05-11T17:36:56.610Z,19.00
2023-05-11T17:39:23.091Z,18.92
2023-05-11T17:41:49.865Z,18.85
2023-05-11T17:44:16.399Z,18.79
2023-05-11T17:46:43.252Z,18.74
2023-05-11T17:49:10.205Z,18.69
2023-05-11T17:51:36.787Z,18.63
2023-05-11T17:54:03.494Z,18.55
2023-05-11T17:56:30.058Z,18.49
2023-05-11T17:58:56.640Z,18.43
2023-05-11T18:01:23.303Z,18.38
2023-05-11T18:03:50.086Z,18.35
2023-05-11T18:06:17.147Z,18.33
2023-05-11T18:08:43.934Z,18.30
2023-05-11T18:11:12.749Z,18.29
2023-05-11T18:13:39.720Z,18.27
2023-05-11T18:16:06.989Z,18.24
2023-05-11T18:18:33.742Z,18.23
2023-05-11T18:21:05.598Z,18.22
2023-05-11T18:23:32.431Z,18.20
2023-05-11T18:25:58.937Z,18.18
2023-05-11T18:28:25.565Z,18.16
2023-05-11T18:30:52.396Z,18.14
2023-05-11T18:33:19.015Z,18.12
2023-05-11T18:35:46.659Z,18.07
2023-05-11T18:38:13.230Z,18.01
2023-05-11T18:40:40.000Z,17.94
2023-05-11T18:43:06.504Z,17.90
2023-05-11T18:45:35.050Z,17.86
2023-05-11T18:48:02.646Z,17.83
2023-05-11T18:50:29.836Z,17.80
2023-05-11T18:52:57.019Z,17.77
2023-05-11T18:55:23.793Z,17.74
2023-05-11T18:57:52.552Z,17.71
2023-05-11T19:00:20.582Z,17.69
2023-05-11T19:02:48.224Z,17.65
2023-05-11T19:05:15.079Z,17.63
2023-05-11T19:07:41.562Z,17.60
2023-05-11T19:10:09.485Z,17.57
2023-05-11T19:12:39.424Z,17.54
2023-05-11T19:15:06.568Z,17.52
2023-05-11T19:17:33.424Z,17.48
2023-05-11T19:19:59.946Z,17.45
2023-05-11T19:22:26.557Z,17.41
2023-05-11T19:24:54.452Z,17.37
2023-05-11T19:27:21.116Z,17.28
2023-05-11T19:29:52.972Z,17.21
2023-05-11T19:32:19.698Z,17.14
2023-05-11T19:34:46.724Z,17.07
2023-05-11T19:37:13.387Z,17.00
2023-05-11T19:39:40.225Z,16.95
2023-05-11T19:42:08.299Z,16.93
2023-05-11T19:44:37.776Z,16.92
2023-05-11T19:47:04.469Z,16.90
2023-05-11T19:49:30.997Z,16.89
2023-05-11T19:51:57.458Z,16.89
2023-05-11T19:54:24.032Z,16.87
2023-05-11T19:56:50.571Z,16.86
2023-05-11T19:59:17.095Z,16.84
2023-05-11T20:01:43.683Z,16.80
2023-05-11T20:04:12.667Z,16.77
2023-05-11T20:06:39.791Z,16.73
2023-05-11T20:09:07.332Z,16.68
2023-05-11T20:11:33.875Z,16.61
2023-05-11T20:14:00.828Z,16.51
2023-05-11T20:16:30.360Z,16.40
2023-05-11T20:18:59.242Z,16.30
2023-05-11T20:21:26.105Z,16.21
2023-05-11T20:23:52.706Z,16.15
2023-05-11T20:26:19.252Z,16.07
2023-05-11T20:28:45.812Z,15.99
2023-05-11T20:31:14.869Z,15.94
2023-05-11T20:36:13.930Z,15.84
2023-05-11T20:38:40.458Z,15.81
2023-05-11T20:41:07.644Z,15.76
2023-05-11T20:43:34.243Z,15.71
2023-05-11T20:46:06.656Z,15.63
2023-05-11T20:48:40.677Z,15.54
2023-05-11T20:51:08.456Z,15.45
2023-05-11T20:53:35.091Z,15.35
2023-05-11T20:56:03.037Z,15.27
2023-05-11T20:58:31.405Z,15.17
2023-05-11T21:00:58.070Z,15.09
2023-05-11T21:03:26.061Z,14.99
2023-05-11T21:05:53.322Z,14.91
2023-05-11T21:08:19.862Z,14.82
2023-05-11T21:10:46.333Z,14.76
2023-05-11T21:13:13.226Z,14.67
2023-05-11T21:15:39.756Z,14.61
2023-05-11T21:18:06.562Z,14.55
2023-05-11T21:20:33.098Z,14.51
2023-05-11T21:23:00.422Z,14.52
2023-05-11T21:25:26.984Z,14.51
2023-05-11T21:27:54.712Z,14.49
2023-05-11T21:30:21.405Z,14.49
2023-05-11T21:32:50.456Z,14.48
2023-05-11T21:35:17.462Z,14.44
2023-05-11T21:37:49.200Z,14.41
2023-05-11T21:40:17.645Z,14.40
2023-05-11T21:42:44.665Z,14.37
2023-05-11T21:45:11.982Z,14.35
2023-05-11T21:47:38.678Z,14.35
2023-05-11T21:50:07.650Z,14.35
2023-05-11T21:52:34.726Z,14.36
2023-05-11T21:55:01.322Z,14.37
2023-05-11T21:57:27.807Z,14.38
2023-05-11T21:59:54.261Z,14.38
2023-05-11T22:02:20.756Z,14.40
2023-05-11T22:04:47.352Z,14.41
2023-05-11T22:07:14.160Z,14.41
2023-05-11T22:09:40.701Z,14.42
2023-05-11T22:12:07.891Z,14.41
2023-05-11T22:14:34.529Z,14.37
2023-05-11T22:17:01.357Z,14.36
2023-05-11T22:19:29.071Z,14.33
2023-05-11T22:21:56.785Z,14.30
2023-05-11T22:24:24.955Z,14.26
2023-05-11T22:26:51.867Z,14.23
2023-05-11T22:29:18.423Z,14.21
2023-05-11T22:31:46.194Z,14.21
2023-05-11T22:34:13.097Z,14.22
2023-05-11T22:36:39.745Z,14.23
2023-05-11T22:39:06.333Z,14.25
2023-05-11T22:41:32.896Z,14.27
2023-05-11T22:44:00.010Z,14.27
2023-05-11T22:46:26.590Z,14.28
2023-05-11T22:48:53.325Z,14.29
2023-05-11T22:51:19.847Z,14.29
2023-05-11T22:53:46.378Z,14.30
2023-05-11T22:56:12.884Z,14.30
2023-05-11T22:58:39.439Z,14.31
2023-05-11T23:01:06.316Z,14.32
2023-05-11T23:03:34.462Z,14.32
2023-05-11T23:06:01.109Z,14.34
2023-05-11T23:08:27.630Z,14.34
2023-05-11T23:10:54.157Z,14.34
2023-05-11T23:13:22.812Z,14.34
2023-05-11T23:15:49.369Z,14.33
2023-05-11T23:18:16.011Z,14.33
2023-05-11T23:20:42.579Z,14.33
2023-05-11T23:23:09.275Z,14.33
2023-05-11T23:25:35.877Z,14.33
2023-05-11T23:28:02.431Z,14.32
2023-05-11T23:30:28.907Z,14.31
2023-05-11T23:32:55.500Z,14.31
2023-05-11T23:35:22.018Z,14.30
2023-05-11T23:37:48.572Z,14.32
2023-05-11T23:40:15.195Z,14.32
2023-05-11T23:42:41.664Z,14.33
2023-05-11T23:45:08.690Z,14.33
2023-05-11T23:47:36.378Z,14.33
2023-05-11T23:50:03.065Z,14.31
2023-05-11T23:52:29.780Z,14.30
2023-05-11T23:54:56.423Z,14.28
2023-05-11T23:57:22.901Z,14.26
2023-05-11T23:59:49.629Z,14.23
